Time;durP1;ratioP1;P1;durP2;ratioP2;P2;SDS_P1;SDS_P2;PMS_P1;PMS_P2;Temp;Humidity;BMP_temperature;BMP_pressure;BME280_temperature;BME280_humidity;BME280_pressure;Samples;Min_cycle;Max_cycle;Signal;HPM_P1;HPM_P2
2023/08/05 00:02:13;;;;;;;5.75;2.00;;;;;;;;;;6264376;28;20383;-89
2023/08/05 00:05:14;;;;;;;5.30;1.92;;;;;;;;;;6261077;28;20049;-91
2023/08/05 00:08:16;;;;;;;4.40;1.92;;;;;;;;;;6262858;28;20353;-91
2023/08/05 00:11:19;;;;;;;2.58;1.80;;;;;;;;;;6264607;28;20057;-88
2023/08/05 00:14:20;;;;;;;4.37;1.90;;;;;;;;;;6264926;28;20060;-88
2023/08/05 00:17:22;;;;;;;6.45;2.00;;;;;;;;;;6265153;28;20067;-85
2023/08/05 00:20:23;;;;;;;3.63;1.80;;;;;;;;;;6271182;28;20099;-88
2023/08/05 00:23:25;;;;;;;3.83;2.00;;;;;;;;;;6267523;28;20370;-91
2023/08/05 00:26:27;;;;;;;3.63;1.77;;;;;;;;;;6268781;28;20049;-90
2023/08/05 00:29:31;;;;;;;3.40;1.57;;;;;;;;;;6268997;28;20329;-84
2023/08/05 00:32:34;;;;;;;4.10;1.83;;;;;;;;;;6246818;28;20126;-90
2023/08/05 00:35:36;;;;;;;1.85;1.35;;;;;;;;;;6242152;28;20111;-85
2023/08/05 00:38:37;;;;;;;4.32;1.85;;;;;;;;;;6244049;28;20375;-79
2023/08/05 00:41:40;;;;;;;3.58;1.80;;;;;;;;;;6243670;28;20049;-89
2023/08/05 00:44:42;;;;;;;4.13;1.80;;;;;;;;;;6244264;28;20053;-87
2023/08/05 00:47:43;;;;;;;3.47;1.60;;;;;;;;;;6245907;28;20054;-90
2023/08/05 00:50:45;;;;;;;3.85;1.70;;;;;;;;;;6243705;28;20272;-88
2023/08/05 00:53:47;;;;;;;2.70;1.55;;;;;;;;;;6243556;28;20045;-90
2023/08/05 00:56:50;;;;;;;3.78;1.73;;;;;;;;;;6242101;28;20061;-89
2023/08/05 00:59:52;;;;;;;5.07;1.85;;;;;;;;;;6240735;28;20048;-92
2023/08/05 01:02:53;;;;;;;4.88;1.58;;;;;;;;;;6241017;28;20045;-86
2023/08/05 01:05:55;;;;;;;5.50;1.90;;;;;;;;;;6240989;28;20048;-90
2023/08/05 01:08:56;;;;;;;5.20;1.98;;;;;;;;;;6239359;28;20045;-82
2023/08/05 01:12:00;;;;;;;7.40;1.80;;;;;;;;;;6243127;28;20053;-83
2023/08/05 01:15:01;;;;;;;4.20;1.80;;;;;;;;;;6242164;28;20084;-88
2023/08/05 01:18:05;;;;;;;5.20;1.88;;;;;;;;;;6240150;28;20466;-81
2023/08/05 01:21:11;;;;;;;4.05;1.80;;;;;;;;;;6241586;28;20045;-89
2023/08/05 01:24:14;;;;;;;3.85;2.10;;;;;;;;;;6241481;28;20090;-88
2023/08/05 01:27:18;;;;;;;4.67;2.10;;;;;;;;;;6241758;28;20061;-85
2023/08/05 01:30:20;;;;;;;6.47;2.38;;;;;;;;;;6242024;28;20053;-85
2023/08/05 01:33:22;;;;;;;4.82;2.35;;;;;;;;;;6242115;28;20095;-91
2023/08/05 01:36:23;;;;;;;7.00;2.40;;;;;;;;;;6243772;28;20061;-90
2023/08/05 01:39:25;;;;;;;5.50;2.55;;;;;;;;;;6241379;28;20337;-90
2023/08/05 01:42:28;;;;;;;5.22;3.00;;;;;;;;;;6241081;28;20247;-90
2023/08/05 01:45:29;;;;;;;5.57;2.50;;;;;;;;;;6244121;28;20053;-87
2023/08/05 01:48:31;;;;;;;7.03;2.50;;;;;;;;;;6242394;28;20257;-87
2023/08/05 01:51:32;;;;;;;3.65;2.40;;;;;;;;;;6231198;28;20061;-90
2023/08/05 01:54:34;;;;;;;4.90;2.70;;;;;;;;;;6240089;28;20052;-79
2023/08/05 01:57:37;;;;;;;6.45;2.83;;;;;;;;;;6241894;28;20111;-87
2023/08/05 02:00:38;;;;;;;6.75;3.22;;;;;;;;;;6241397;28;20057;-89
2023/08/05 02:03:40;;;;;;;7.00;3.30;;;;;;;;;;6238528;28;20060;-90
2023/08/05 02:06:42;;;;;;;7.00;3.63;;;;;;;;;;6240552;28;20103;-86
2023/08/05 02:09:43;;;;;;;8.75;3.55;;;;;;;;;;6240048;28;20829;-90
2023/08/05 02:12:46;;;;;;;6.53;3.42;;;;;;;;;;6242360;28;20091;-90
2023/08/05 02:15:48;;;;;;;8.05;3.20;;;;;;;;;;6241044;28;20057;-89
2023/08/05 02:18:50;;;;;;;8.52;3.47;;;;;;;;;;6240751;28;20065;-83
2023/08/05 02:21:53;;;;;;;7.57;3.83;;;;;;;;;;6242762;28;20049;-91
2023/08/05 02:24:57;;;;;;;11.40;4.20;;;;;;;;;;6241567;28;20215;-85
2023/08/05 02:28:00;;;;;;;7.65;3.47;;;;;;;;;;6241537;28;20050;-88
2023/08/05 02:31:02;;;;;;;8.13;3.75;;;;;;;;;;6240430;28;20218;-85
2023/08/05 02:34:03;;;;;;;7.75;3.75;;;;;;;;;;6240960;28;20045;-86
2023/08/05 02:37:05;;;;;;;9.15;3.55;;;;;;;;;;6238736;28;20046;-83
2023/08/05 02:40:07;;;;;;;7.15;3.50;;;;;;;;;;6241240;28;20057;-90
2023/08/05 02:43:10;;;;;;;4.63;2.80;;;;;;;;;;6235873;28;20053;-90
2023/08/05 02:46:11;;;;;;;7.15;3.22;;;;;;;;;;6242672;28;20053;-88
2023/08/05 02:49:13;;;;;;;8.68;2.88;;;;;;;;;;6237580;28;20110;-85
2023/08/05 02:52:15;;;;;;;5.82;2.97;;;;;;;;;;6239587;28;20079;-91
2023/08/05 02:55:16;;;;;;;4.55;2.75;;;;;;;;;;6244724;28;20061;-90
2023/08/05 02:58:19;;;;;;;7.57;3.72;;;;;;;;;;6243476;28;20057;-88
2023/08/05 03:01:21;;;;;;;5.87;2.83;;;;;;;;;;6240398;28;20091;-83
2023/08/05 03:04:22;;;;;;;5.07;3.38;;;;;;;;;;6239806;28;20464;-87
2023/08/05 03:07:24;;;;;;;7.43;3.47;;;;;;;;;;6238750;28;20441;-80
2023/08/05 03:10:25;;;;;;;6.53;3.70;;;;;;;;;;6239706;28;20249;-82
2023/08/05 03:13:28;;;;;;;4.40;2.92;;;;;;;;;;6238711;28;20101;-88
2023/08/05 03:16:30;;;;;;;5.97;3.03;;;;;;;;;;6240766;28;20095;-87
2023/08/05 03:19:31;;;;;;;6.50;3.03;;;;;;;;;;6238105;28;20058;-89
2023/08/05 03:22:40;;;;;;;8.50;3.10;;;;;;;;;;6240604;28;20053;-83
2023/08/05 03:25:42;;;;;;;5.45;2.53;;;;;;;;;;6237157;28;20337;-90
2023/08/05 03:28:45;;;;;;;7.10;2.80;;;;;;;;;;6240470;28;20226;-84
2023/08/05 03:31:47;;;;;;;4.33;2.93;;;;;;;;;;6239282;28;20057;-86
2023/08/05 03:34:49;;;;;;;5.45;2.70;;;;;;;;;;6237385;28;20468;-86
2023/08/05 03:37:50;;;;;;;10.55;2.95;;;;;;;;;;6239786;28;20054;-89
2023/08/05 03:40:52;;;;;;;6.95;2.67;;;;;;;;;;6239017;28;20049;-89
2023/08/05 03:43:55;;;;;;;6.07;2.58;;;;;;;;;;6237045;28;20050;-90
2023/08/05 03:46:57;;;;;;;7.82;2.92;;;;;;;;;;6239397;28;20061;-90
2023/08/05 03:49:58;;;;;;;5.97;2.40;;;;;;;;;;6242999;28;20069;-89
2023/08/05 03:53:00;;;;;;;6.38;2.50;;;;;;;;;;6245875;28;20234;-85
2023/08/05 03:56:01;;;;;;;5.90;2.67;;;;;;;;;;6245094;28;20060;-90
2023/08/05 03:59:04;;;;;;;5.70;2.42;;;;;;;;;;6243678;28;20241;-84
2023/08/05 04:02:06;;;;;;;5.50;2.78;;;;;;;;;;6243336;28;20248;-86
2023/08/05 04:05:08;;;;;;;6.95;3.03;;;;;;;;;;6243976;28;20225;-84
2023/08/05 04:08:11;;;;;;;4.97;3.15;;;;;;;;;;6242631;28;20341;-89
2023/08/05 04:11:12;;;;;;;5.13;2.53;;;;;;;;;;6241636;28;20317;-84
2023/08/05 04:14:17;;;;;;;6.28;3.72;;;;;;;;;;6244636;28;20065;-89
2023/08/05 04:17:19;;;;;;;6.25;3.67;;;;;;;;;;6243611;28;20153;-89
2023/08/05 04:20:20;;;;;;;6.75;3.45;;;;;;;;;;6246780;28;20117;-89
2023/08/05 04:23:24;;;;;;;6.78;4.30;;;;;;;;;;6242058;28;20107;-87
2023/08/05 04:26:25;;;;;;;8.77;4.53;;;;;;;;;;6244407;28;20057;-77
2023/08/05 04:29:28;;;;;;;7.38;4.10;;;;;;;;;;6242856;28;20073;-75
2023/08/05 04:32:30;;;;;;;7.80;4.80;;;;;;;;;;6246914;28;20064;-72
2023/08/05 04:35:31;;;;;;;11.48;5.22;;;;;;;;;;6244095;28;20050;-78
2023/08/05 04:38:33;;;;;;;9.38;5.53;;;;;;;;;;6242541;28;20054;-78
2023/08/05 04:41:34;;;;;;;9.40;5.10;;;;;;;;;;6242177;28;20054;-78
2023/08/05 04:44:40;;;;;;;10.95;5.13;;;;;;;;;;6242429;28;20455;-76
2023/08/05 04:47:41;;;;;;;9.07;5.70;;;;;;;;;;6243451;28;20100;-75
2023/08/05 04:50:43;;;;;;;7.05;5.10;;;;;;;;;;6243954;28;20356;-74
2023/08/05 04:53:44;;;;;;;10.73;5.32;;;;;;;;;;6241357;28;20060;-78
2023/08/05 04:56:47;;;;;;;12.55;5.70;;;;;;;;;;6242975;28;20056;-76
2023/08/05 04:59:49;;;;;;;9.65;4.97;;;;;;;;;;6239238;28;20045;-74
2023/08/05 05:02:51;;;;;;;10.70;5.30;;;;;;;;;;6241854;28;20240;-75
2023/08/05 05:05:52;;;;;;;10.35;5.53;;;;;;;;;;6240282;28;20057;-77
2023/08/05 05:08:54;;;;;;;8.52;4.68;;;;;;;;;;6241405;28;20099;-78
2023/08/05 05:11:55;;;;;;;9.18;4.70;;;;;;;;;;6243006;28;20054;-76
2023/08/05 05:14:58;;;;;;;8.10;5.53;;;;;;;;;;6242010;28;20057;-77
2023/08/05 05:18:00;;;;;;;9.57;5.22;;;;;;;;;;6240111;28;20143;-77
2023/08/05 05:21:01;;;;;;;14.27;5.45;;;;;;;;;;6241689;28;20103;-76
2023/08/05 05:24:03;;;;;;;12.35;5.18;;;;;;;;;;6240390;28;20057;-76
2023/08/05 05:27:05;;;;;;;10.00;5.10;;;;;;;;;;6242567;28;20053;-77
2023/08/05 05:30:09;;;;;;;12.93;5.15;;;;;;;;;;6240607;28;20069;-75
2023/08/05 05:33:11;;;;;;;8.80;5.43;;;;;;;;;;6239209;28;20061;-79
2023/08/05 05:36:12;;;;;;;10.40;5.50;;;;;;;;;;6243968;28;20318;-76
2023/08/05 05:39:14;;;;;;;8.50;4.85;;;;;;;;;;6242969;28;20058;-77
2023/08/05 05:42:16;;;;;;;10.25;5.35;;;;;;;;;;6242964;28;20064;-78
2023/08/05 05:45:21;;;;;;;9.10;5.82;;;;;;;;;;6243596;28;20053;-77
2023/08/05 05:48:22;;;;;;;8.70;5.43;;;;;;;;;;6240965;28;20064;-76
2023/08/05 05:51:24;;;;;;;9.60;6.13;;;;;;;;;;6244260;28;20067;-78
2023/08/05 05:54:25;;;;;;;13.13;5.88;;;;;;;;;;6243511;28;20060;-75
2023/08/05 05:57:27;;;;;;;10.70;6.20;;;;;;;;;;6240508;28;20260;-75
2023/08/05 06:00:29;;;;;;;12.02;6.45;;;;;;;;;;6240770;28;20143;-77
2023/08/05 06:03:33;;;;;;;10.90;6.28;;;;;;;;;;6240837;28;20363;-75
2023/08/05 06:06:35;;;;;;;10.85;6.97;;;;;;;;;;6241580;28;20053;-76
2023/08/05 06:09:36;;;;;;;9.40;6.65;;;;;;;;;;6239381;28;20088;-77
2023/08/05 06:12:38;;;;;;;9.25;6.93;;;;;;;;;;6240979;28;20053;-78
2023/08/05 06:15:41;;;;;;;11.50;7.20;;;;;;;;;;6239423;28;20322;-79
2023/08/05 06:18:42;;;;;;;15.10;7.32;;;;;;;;;;6240384;28;20052;-78
2023/08/05 06:21:44;;;;;;;14.18;8.25;;;;;;;;;;6238579;28;20064;-88
2023/08/05 06:24:45;;;;;;;13.63;7.80;;;;;;;;;;6242617;28;20113;-91
2023/08/05 06:27:47;;;;;;;13.15;8.05;;;;;;;;;;6241707;28;20333;-90
2023/08/05 06:30:49;;;;;;;14.27;8.60;;;;;;;;;;6240380;28;20058;-92
2023/08/05 06:33:51;;;;;;;13.15;7.45;;;;;;;;;;6238240;28;20053;-89
2023/08/05 06:36:52;;;;;;;12.40;8.27;;;;;;;;;;6242659;28;20052;-80
2023/08/05 06:39:54;;;;;;;13.02;8.50;;;;;;;;;;6238699;28;20051;-89
2023/08/05 06:42:56;;;;;;;12.10;8.13;;;;;;;;;;6238804;28;20057;-89
2023/08/05 06:45:59;;;;;;;13.77;8.00;;;;;;;;;;6238149;28;20052;-79
2023/08/05 06:49:00;;;;;;;10.68;7.55;;;;;;;;;;6238502;28;20057;-87
2023/08/05 06:52:02;;;;;;;9.65;7.10;;;;;;;;;;6237549;28;20056;-86
2023/08/05 06:55:04;;;;;;;10.43;6.95;;;;;;;;;;6239853;28;20211;-87
2023/08/05 06:58:05;;;;;;;16.48;6.68;;;;;;;;;;6241352;28;20053;-87
2023/08/05 07:01:08;;;;;;;12.10;7.50;;;;;;;;;;6236882;28;20057;-89
2023/08/05 07:04:09;;;;;;;10.63;7.10;;;;;;;;;;6240031;28;20049;-87
2023/08/05 07:07:11;;;;;;;10.55;7.13;;;;;;;;;;6239281;28;20049;-87
2023/08/05 07:10:12;;;;;;;10.55;7.47;;;;;;;;;;6240082;28;20057;-88
2023/08/05 07:13:14;;;;;;;11.05;6.20;;;;;;;;;;6238307;28;20272;-90
2023/08/05 07:16:17;;;;;;;14.90;7.03;;;;;;;;;;6239548;28;20119;-88
2023/08/05 07:19:18;;;;;;;9.27;6.90;;;;;;;;;;6242147;28;20045;-91
2023/08/05 07:22:19;;;;;;;11.13;7.25;;;;;;;;;;6239101;28;20058;-80
2023/08/05 07:25:21;;;;;;;11.93;8.23;;;;;;;;;;6241178;28;20222;-90
2023/08/05 07:28:22;;;;;;;17.30;10.00;;;;;;;;;;6244948;28;20057;-89
2023/08/05 07:31:25;;;;;;;15.38;9.45;;;;;;;;;;6244696;28;20061;-89
2023/08/05 07:34:31;;;;;;;18.15;10.27;;;;;;;;;;6244246;28;20057;-89
2023/08/05 07:37:34;;;;;;;16.77;12.73;;;;;;;;;;6244821;28;20057;-90
2023/08/05 07:40:36;;;;;;;19.53;14.27;;;;;;;;;;6245834;28;20057;-88
2023/08/05 07:43:38;;;;;;;19.58;15.00;;;;;;;;;;6242874;28;20057;-87
2023/08/05 07:46:41;;;;;;;18.15;14.10;;;;;;;;;;6245014;28;20189;-89
2023/08/05 07:49:44;;;;;;;22.05;14.02;;;;;;;;;;6244304;28;20057;-90
2023/08/05 07:52:45;;;;;;;16.77;13.27;;;;;;;;;;6243393;28;20061;-90
2023/08/05 07:55:48;;;;;;;16.05;12.50;;;;;;;;;;6245143;28;20069;-88
2023/08/05 07:58:49;;;;;;;17.48;12.90;;;;;;;;;;6245704;28;20060;-86
2023/08/05 08:01:54;;;;;;;15.15;12.20;;;;;;;;;;6242129;28;20056;-88
2023/08/05 08:04:57;;;;;;;16.25;10.98;;;;;;;;;;6244077;28;20626;-80
2023/08/05 08:08:00;;;;;;;;;;;;;;;;;;6243927;28;20075;-88
2023/08/05 08:11:01;;;;;;;12.52;9.38;;;;;;;;;;6241239;28;21009;-85
2023/08/05 08:14:04;;;;;;;13.60;10.55;;;;;;;;;;6243545;28;20080;-90
2023/08/05 08:17:07;;;;;;;12.43;10.23;;;;;;;;;;6243343;28;20091;-90
2023/08/05 08:20:08;;;;;;;16.67;10.00;;;;;;;;;;6242970;28;20506;-88
2023/08/05 08:23:10;;;;;;;16.13;9.45;;;;;;;;;;6243139;28;20812;-87
2023/08/05 08:26:11;;;;;;;13.98;10.82;;;;;;;;;;6242646;28;20218;-90
2023/08/05 08:29:13;;;;;;;14.80;11.27;;;;;;;;;;6242839;28;20049;-85
2023/08/05 08:32:16;;;;;;;18.23;11.30;;;;;;;;;;6243817;28;20049;-88
2023/08/05 08:35:17;;;;;;;15.02;11.63;;;;;;;;;;6243429;28;20334;-87
2023/08/05 08:38:19;;;;;;;14.15;10.45;;;;;;;;;;6244644;28;20238;-88
2023/08/05 08:41:21;;;;;;;15.65;9.90;;;;;;;;;;6242083;28;20057;-90
2023/08/05 08:44:23;;;;;;;13.00;9.32;;;;;;;;;;6243679;28;20066;-84
2023/08/05 08:47:26;;;;;;;12.35;9.38;;;;;;;;;;6241041;28;20360;-87
2023/08/05 08:50:27;;;;;;;13.10;8.10;;;;;;;;;;6242476;28;20372;-83
2023/08/05 08:53:30;;;;;;;11.32;8.32;;;;;;;;;;6240359;28;20064;-81
2023/08/05 08:56:32;;;;;;;11.27;8.18;;;;;;;;;;6243763;28;20049;-87
2023/08/05 08:59:33;;;;;;;9.32;6.75;;;;;;;;;;6244250;28;20053;-86
2023/08/05 09:02:39;;;;;;;8.77;6.38;;;;;;;;;;6240167;28;20050;-85
2023/08/05 09:09:25;;;;;;;9.32;6.15;;;;;;;;;;6220894;28;20054;-81
2023/08/05 09:12:30;;;;;;;9.02;6.47;;;;;;;;;;6243247;28;20076;-87
2023/08/05 09:15:33;;;;;;;9.15;7.22;;;;;;;;;;6242174;28;20060;-88
2023/08/05 09:18:42;;;;;;;8.35;6.60;;;;;;;;;;6245138;28;20074;-87
2023/08/05 09:21:44;;;;;;;11.05;6.78;;;;;;;;;;6241704;28;20049;-85
2023/08/05 09:24:45;;;;;;;8.90;5.70;;;;;;;;;;6239440;28;20045;-85
2023/08/05 09:27:47;;;;;;;9.02;6.35;;;;;;;;;;6243942;28;20148;-89
2023/08/05 09:30:49;;;;;;;9.40;5.43;;;;;;;;;;6243275;28;20338;-88
2023/08/05 09:33:51;;;;;;;8.23;4.82;;;;;;;;;;6237075;28;20056;-87
2023/08/05 09:36:53;;;;;;;;;;;;;;;;;;6245451;28;20057;-89
2023/08/05 09:39:55;;;;;;;13.25;6.18;;;;;;;;;;6243248;28;19931;-89
2023/08/05 09:42:59;;;;;;;7.82;6.07;;;;;;;;;;6240503;28;20574;-86
2023/08/05 09:46:02;;;;;;;8.88;6.93;;;;;;;;;;6241151;28;20061;-87
2023/08/05 09:49:06;;;;;;;7.13;5.63;;;;;;;;;;6242380;28;20123;-84
2023/08/05 09:52:10;;;;;;;7.72;4.68;;;;;;;;;;6241222;28;20064;-87
2023/08/05 09:55:12;;;;;;;7.40;5.05;;;;;;;;;;6239856;28;20117;-87
2023/08/05 09:58:16;;;;;;;7.00;4.97;;;;;;;;;;6242102;28;20712;-87
2023/08/05 10:01:18;;;;;;;6.53;4.45;;;;;;;;;;6240771;28;22021;-88
2023/08/05 10:04:21;;;;;;;4.57;3.70;;;;;;;;;;6240534;28;20049;-90
2023/08/05 10:07:24;;;;;;;5.97;3.78;;;;;;;;;;6241013;28;20050;-88
2023/08/05 10:10:25;;;;;;;8.67;3.77;;;;;;;;;;6241531;28;20063;-89
2023/08/05 10:13:27;;;;;;;6.22;3.10;;;;;;;;;;6238235;28;20087;-87
2023/08/05 10:16:28;;;;;;;6.93;3.28;;;;;;;;;;6238821;28;20057;-88
2023/08/05 10:19:32;;;;;;;5.07;3.08;;;;;;;;;;6241806;28;20053;-86
2023/08/05 10:22:34;;;;;;;6.00;3.40;;;;;;;;;;6239905;28;20049;-86
2023/08/05 10:25:40;;;;;;;5.40;3.35;;;;;;;;;;6239275;28;20223;-88
2023/08/05 10:28:45;;;;;;;7.28;3.22;;;;;;;;;;6240613;28;20138;-84
2023/08/05 10:31:48;;;;;;;5.38;2.90;;;;;;;;;;6237940;28;20116;-81
2023/08/05 10:35:04;;;;;;;5.53;2.67;;;;;;;;;;6240134;28;21288;-82
2023/08/05 10:38:16;;;;;;;5.15;3.28;;;;;;;;;;6238669;28;20056;-86
2023/08/05 10:41:17;;;;;;;3.17;2.65;;;;;;;;;;6237736;28;20051;-85
2023/08/05 10:44:19;;;;;;;6.35;3.53;;;;;;;;;;6243989;28;20048;-86
2023/08/05 10:47:21;;;;;;;6.50;3.33;;;;;;;;;;6242133;28;20061;-87
2023/08/05 10:50:23;;;;;;;5.78;3.03;;;;;;;;;;6239512;28;20120;-86
2023/08/05 10:53:26;;;;;;;5.32;3.10;;;;;;;;;;6241093;28;20053;-86
2023/08/05 10:56:29;;;;;;;4.78;3.08;;;;;;;;;;6240776;28;20353;-88
2023/08/05 10:59:56;;;;;;;5.43;2.80;;;;;;;;;;6239017;28;20045;-86
2023/08/05 11:03:16;;;;;;;5.00;3.30;;;;;;;;;;6238386;28;20342;-82
2023/08/05 11:06:22;;;;;;;3.00;2.00;;;;;;;;;;6239683;28;20467;-85
2023/08/05 11:09:24;;;;;;;4.80;2.90;;;;;;;;;;6236851;28;20057;-85
2023/08/05 11:12:29;;;;;;;8.95;3.33;;;;;;;;;;6238849;28;20050;-79
2023/08/05 11:15:30;;;;;;;6.18;3.17;;;;;;;;;;6239480;28;20063;-89
2023/08/05 11:18:32;;;;;;;4.28;2.60;;;;;;;;;;6238820;28;20056;-79
2023/08/05 11:21:34;;;;;;;6.15;3.05;;;;;;;;;;6236564;28;20045;-86
2023/08/05 11:24:37;;;;;;;3.15;2.25;;;;;;;;;;6239177;28;20272;-85
2023/08/05 11:27:39;;;;;;;3.70;2.53;;;;;;;;;;6239717;28;20050;-88
2023/08/05 11:30:40;;;;;;;5.13;2.22;;;;;;;;;;6238817;28;20057;-87
2023/08/05 11:33:47;;;;;;;3.88;2.05;;;;;;;;;;6240835;28;20302;-87
2023/08/05 11:36:54;;;;;;;2.50;1.50;;;;;;;;;;6240228;28;20053;-82
2023/08/05 11:40:02;;;;;;;2.30;1.80;;;;;;;;;;6240147;28;20348;-82
2023/08/05 11:43:06;;;;;;;4.18;2.53;;;;;;;;;;6236708;28;20273;-82
2023/08/05 11:46:07;;;;;;;4.07;2.30;;;;;;;;;;6238642;28;20053;-82
2023/08/05 11:49:09;;;;;;;3.73;1.97;;;;;;;;;;6239841;28;20050;-81
2023/08/05 11:52:11;;;;;;;2.92;2.00;;;;;;;;;;6238591;28;20096;-82
2023/08/05 11:55:14;;;;;;;3.22;1.75;;;;;;;;;;6240650;28;20084;-84
2023/08/05 11:58:15;;;;;;;3.05;2.20;;;;;;;;;;6239935;28;20054;-84
2023/08/05 12:01:17;;;;;;;3.75;2.10;;;;;;;;;;6240439;28;20054;-82
2023/08/05 12:04:18;;;;;;;4.43;2.22;;;;;;;;;;6238687;28;20060;-81
2023/08/05 12:07:20;;;;;;;3.00;1.98;;;;;;;;;;6239622;28;20073;-81
2023/08/05 12:10:23;;;;;;;4.00;1.70;;;;;;;;;;6239168;28;20717;-81
2023/08/05 12:13:25;;;;;;;3.00;1.75;;;;;;;;;;6243856;28;20392;-81
2023/08/05 12:16:29;;;;;;;5.63;2.05;;;;;;;;;;6244234;28;20067;-82
2023/08/05 12:19:30;;;;;;;2.58;1.73;;;;;;;;;;6246429;28;20060;-81
2023/08/05 12:22:32;;;;;;;2.97;1.92;;;;;;;;;;6244117;28;20041;-82
2023/08/05 12:25:35;;;;;;;3.45;1.88;;;;;;;;;;6242036;28;20046;-81
2023/08/05 12:28:37;;;;;;;5.05;1.83;;;;;;;;;;6243023;28;20096;-81
2023/08/05 12:31:38;;;;;;;3.85;1.70;;;;;;;;;;6240586;28;20125;-81
2023/08/05 12:34:40;;;;;;;3.67;2.15;;;;;;;;;;6242064;28;20048;-77
2023/08/05 12:37:41;;;;;;;2.40;1.48;;;;;;;;;;6242004;28;20052;-80
2023/08/05 12:40:44;;;;;;;3.83;1.77;;;;;;;;;;6242520;28;20061;-82
2023/08/05 12:43:46;;;;;;;3.33;1.90;;;;;;;;;;6244215;28;20066;-81
2023/08/05 12:46:47;;;;;;;3.03;1.67;;;;;;;;;;6243152;28;20115;-80
2023/08/05 12:49:49;;;;;;;3.88;1.80;;;;;;;;;;6243830;28;20241;-80
2023/08/05 12:52:50;;;;;;;2.53;1.50;;;;;;;;;;6240398;28;20272;-77
2023/08/05 12:55:53;;;;;;;3.03;1.50;;;;;;;;;;6241586;28;20058;-77
2023/08/05 12:58:55;;;;;;;1.92;1.48;;;;;;;;;;6243290;28;20060;-82
2023/08/05 13:01:56;;;;;;;2.58;1.40;;;;;;;;;;6244727;28;20176;-82
2023/08/05 13:04:58;;;;;;;2.65;1.42;;;;;;;;;;6240317;28;20041;-81
2023/08/05 13:07:59;;;;;;;2.85;1.50;;;;;;;;;;6242886;28;20041;-81
2023/08/05 13:11:02;;;;;;;3.95;1.60;;;;;;;;;;6239828;28;20329;-79
2023/08/05 13:14:03;;;;;;;2.70;1.50;;;;;;;;;;6240774;28;20088;-83
2023/08/05 13:17:05;;;;;;;2.03;1.00;;;;;;;;;;6241224;28;20091;-82
2023/08/05 13:20:07;;;;;;;3.80;1.38;;;;;;;;;;6243095;28;20064;-81
2023/08/05 13:23:09;;;;;;;2.17;1.02;;;;;;;;;;6239389;28;20061;-79
2023/08/05 13:26:11;;;;;;;2.10;1.25;;;;;;;;;;6240469;28;20049;-83
2023/08/05 13:29:13;;;;;;;2.38;1.20;;;;;;;;;;6241527;28;20054;-82
2023/08/05 13:32:14;;;;;;;1.70;1.10;;;;;;;;;;6240956;28;20726;-83
2023/08/05 13:35:16;;;;;;;2.35;1.10;;;;;;;;;;6241958;28;20052;-79
2023/08/05 13:38:17;;;;;;;3.17;1.40;;;;;;;;;;6246471;28;20364;-82
2023/08/05 13:41:20;;;;;;;2.35;1.08;;;;;;;;;;6245536;28;20052;-81
2023/08/05 13:44:21;;;;;;;1.67;1.30;;;;;;;;;;6243769;28;20547;-78
2023/08/05 13:47:23;;;;;;;2.67;1.50;;;;;;;;;;6242126;28;20346;-81
2023/08/05 13:50:24;;;;;;;2.47;1.38;;;;;;;;;;6239238;28;20341;-82
2023/08/05 13:53:26;;;;;;;1.33;0.98;;;;;;;;;;6242326;28;20053;-81
2023/08/05 13:56:28;;;;;;;1.98;1.00;;;;;;;;;;6243105;28;20057;-83
2023/08/05 13:59:30;;;;;;;1.60;1.08;;;;;;;;;;6244061;28;20143;-82
2023/08/05 14:02:31;;;;;;;1.27;0.98;;;;;;;;;;6239668;28;20373;-83
2023/08/05 14:05:33;;;;;;;1.50;1.10;;;;;;;;;;6239962;28;20056;-82
2023/08/05 14:08:34;;;;;;;;;;;;;;;;;;6240020;28;20123;-80
2023/08/05 14:11:37;;;;;;;2.85;1.00;;;;;;;;;;6239948;28;19925;-81
2023/08/05 14:14:39;;;;;;;2.25;1.27;;;;;;;;;;6241103;28;20073;-81
2023/08/05 14:17:40;;;;;;;1.92;0.90;;;;;;;;;;6241250;28;20127;-77
2023/08/05 14:20:42;;;;;;;1.70;0.90;;;;;;;;;;6239170;28;20088;-83
2023/08/05 14:23:43;;;;;;;;;;;;;;;;;;6241278;28;20050;-78
2023/08/05 14:26:46;;;;;;;1.95;1.27;;;;;;;;;;6239695;28;19929;-79
2023/08/05 14:29:47;;;;;;;2.38;1.17;;;;;;;;;;6238987;28;20061;-84
2023/08/05 14:32:49;;;;;;;2.80;1.25;;;;;;;;;;6239096;28;20061;-82
2023/08/05 14:35:50;;;;;;;1.92;1.13;;;;;;;;;;6236867;28;20057;-82
2023/08/05 14:38:52;;;;;;;1.27;0.75;;;;;;;;;;6240159;28;20053;-81
2023/08/05 14:41:54;;;;;;;2.35;1.20;;;;;;;;;;6239435;28;20049;-77
2023/08/05 14:44:56;;;;;;;1.90;0.95;;;;;;;;;;6238898;28;20234;-81
2023/08/05 14:47:57;;;;;;;;;;;;;;;;;;6242405;28;20056;-81
2023/08/05 14:51:01;;;;;;;2.83;1.08;;;;;;;;;;6238674;28;19925;-83
2023/08/05 14:54:03;;;;;;;2.55;1.00;;;;;;;;;;6238889;28;20048;-80
2023/08/05 14:57:06;;;;;;;2.88;1.00;;;;;;;;;;6238787;28;20277;-82
2023/08/05 15:00:09;;;;;;;0.95;0.88;;;;;;;;;;6243192;28;20104;-81
2023/08/05 15:03:11;;;;;;;1.20;1.00;;;;;;;;;;6237830;28;20054;-83
2023/08/05 15:06:12;;;;;;;;;;;;;;;;;;6239312;28;20053;-81
2023/08/05 15:09:13;;;;;;;1.85;1.02;;;;;;;;;;6239071;28;19917;-82
2023/08/05 15:12:14;;;;;;;;;;;;;;;;;;6239695;28;20063;-82
2023/08/05 15:15:17;;;;;;;2.03;1.02;;;;;;;;;;6237521;28;19967;-82
2023/08/05 15:18:19;;;;;;;2.20;0.90;;;;;;;;;;6236700;28;20053;-80
2023/08/05 15:21:20;;;;;;;1.98;1.10;;;;;;;;;;6238509;28;20056;-85
2023/08/05 15:24:22;;;;;;;1.33;1.05;;;;;;;;;;6238811;28;20357;-80
2023/08/05 15:27:23;;;;;;;1.45;1.05;;;;;;;;;;6237988;28;20215;-83
2023/08/05 15:30:26;;;;;;;0.95;0.70;;;;;;;;;;6238679;28;20325;-82
2023/08/05 15:33:28;;;;;;;1.40;1.02;;;;;;;;;;6240910;28;20057;-80
2023/08/05 15:36:29;;;;;;;2.45;1.48;;;;;;;;;;6241174;28;20332;-83
2023/08/05 15:39:30;;;;;;;3.03;1.00;;;;;;;;;;6238582;28;20100;-80
2023/08/05 15:42:32;;;;;;;1.90;1.00;;;;;;;;;;6236592;28;20071;-82
2023/08/05 15:45:37;;;;;;;1.95;0.90;;;;;;;;;;6239612;28;20057;-83
2023/08/05 15:48:38;;;;;;;1.40;0.80;;;;;;;;;;6243347;28;20077;-83
2023/08/05 15:51:40;;;;;;;1.52;0.80;;;;;;;;;;6244386;28;20045;-85
2023/08/05 15:54:41;;;;;;;2.10;0.93;;;;;;;;;;6244021;28;20066;-83
2023/08/05 15:57:43;;;;;;;2.42;0.80;;;;;;;;;;6244505;28;20042;-82
2023/08/05 16:00:46;;;;;;;2.45;0.88;;;;;;;;;;6246015;28;20057;-82
2023/08/05 16:03:48;;;;;;;1.30;0.63;;;;;;;;;;6242136;28;20119;-83
2023/08/05 16:06:50;;;;;;;2.60;0.90;;;;;;;;;;6248015;28;20057;-85
2023/08/05 16:09:52;;;;;;;0.80;0.70;;;;;;;;;;6242819;28;20107;-82
2023/08/05 16:12:53;;;;;;;4.13;0.80;;;;;;;;;;6241491;28;20050;-85
2023/08/05 16:16:05;;;;;;;0.60;0.47;;;;;;;;;;6242025;28;20058;-84
2023/08/05 16:19:07;;;;;;;1.33;0.68;;;;;;;;;;6242569;28;20092;-85
2023/08/05 16:22:08;;;;;;;3.22;0.50;;;;;;;;;;6244841;28;20238;-85
2023/08/05 16:25:12;;;;;;;0.60;0.30;;;;;;;;;;6242390;28;20147;-82
2023/08/05 16:28:13;;;;;;;0.52;0.35;;;;;;;;;;6240617;28;20049;-86
2023/08/05 16:31:17;;;;;;;0.40;0.30;;;;;;;;;;6240245;28;20064;-87
2023/08/05 16:34:18;;;;;;;1.58;0.57;;;;;;;;;;6242730;28;20126;-88
2023/08/05 16:37:20;;;;;;;1.00;0.40;;;;;;;;;;6241664;28;20052;-87
2023/08/05 16:40:21;;;;;;;1.40;0.50;;;;;;;;;;6243240;28;20073;-83
2023/08/05 16:43:23;;;;;;;1.00;0.40;;;;;;;;;;6242587;28;20058;-87
2023/08/05 16:46:25;;;;;;;0.90;0.52;;;;;;;;;;6242963;28;20272;-87
2023/08/05 16:49:27;;;;;;;1.25;0.30;;;;;;;;;;6240214;28;20054;-85
2023/08/05 16:52:28;;;;;;;1.67;0.30;;;;;;;;;;6241014;28;20261;-84
2023/08/05 16:55:30;;;;;;;0.68;0.50;;;;;;;;;;6243281;28;20047;-86
2023/08/05 16:58:31;;;;;;;1.70;0.30;;;;;;;;;;6240394;28;20250;-88
2023/08/05 17:01:34;;;;;;;0.45;0.28;;;;;;;;;;6240127;28;20072;-87
2023/08/05 17:04:36;;;;;;;1.30;0.40;;;;;;;;;;6242537;28;20061;-87
2023/08/05 17:07:37;;;;;;;1.95;0.40;;;;;;;;;;6242987;28;20061;-84
2023/08/05 17:10:39;;;;;;;1.45;0.40;;;;;;;;;;6241445;28;20058;-83
2023/08/05 17:13:40;;;;;;;0.82;0.50;;;;;;;;;;6241328;28;20069;-87
2023/08/05 17:16:43;;;;;;;3.78;0.60;;;;;;;;;;6242864;28;20049;-88
2023/08/05 17:19:45;;;;;;;0.47;0.30;;;;;;;;;;6241259;28;20057;-87
2023/08/05 17:22:47;;;;;;;0.38;0.30;;;;;;;;;;6241403;28;20041;-88
2023/08/05 17:25:48;;;;;;;1.17;0.30;;;;;;;;;;6241939;28;20041;-86
2023/08/05 17:28:50;;;;;;;0.57;0.40;;;;;;;;;;6240454;28;20099;-84
2023/08/05 17:31:53;;;;;;;0.80;0.40;;;;;;;;;;6241614;28;20061;-87
2023/08/05 17:34:54;;;;;;;1.20;0.40;;;;;;;;;;6239101;28;20053;-87
2023/08/05 17:37:56;;;;;;;0.90;0.43;;;;;;;;;;6239620;28;20466;-86
2023/08/05 17:40:59;;;;;;;3.10;0.38;;;;;;;;;;6243278;28;20045;-88
2023/08/05 17:44:01;;;;;;;2.08;0.35;;;;;;;;;;6240107;28;20168;-85
2023/08/05 17:47:04;;;;;;;0.60;0.30;;;;;;;;;;6238921;28;20369;-88
2023/08/05 17:50:06;;;;;;;0.60;0.30;;;;;;;;;;6239739;28;20053;-87
2023/08/05 17:53:08;;;;;;;1.52;0.70;;;;;;;;;;6238702;28;20241;-87
2023/08/05 17:56:13;;;;;;;2.25;0.50;;;;;;;;;;6240796;28;20061;-85
2023/08/05 17:59:23;;;;;;;2.10;0.35;;;;;;;;;;6236742;28;20049;-87
2023/08/05 18:02:26;;;;;;;0.88;0.45;;;;;;;;;;6231279;28;20073;-85
2023/08/05 18:05:28;;;;;;;1.08;0.38;;;;;;;;;;6238101;28;20048;-86
2023/08/05 18:08:45;;;;;;;0.43;0.40;;;;;;;;;;6200008;28;20104;-84
2023/08/05 18:11:49;;;;;;;0.70;0.38;;;;;;;;;;6234199;28;20058;-88
2023/08/05 18:14:51;;;;;;;0.77;0.40;;;;;;;;;;6238291;28;20060;-87